createdAt,value
2022-08-27T00:00:54.699Z,84.80
2022-08-27T00:03:24.281Z,93.38
2022-08-27T00:05:53.743Z,108.75
2022-08-27T00:08:23.337Z,118.50
2022-08-27T00:10:52.815Z,114.38
2022-08-27T00:13:21.956Z,98.80
2022-08-27T00:15:51.064Z,85.30
2022-08-27T00:18:22.689Z,77.07
2022-08-27T00:20:52.797Z,75.78
2022-08-27T00:23:21.937Z,75.25
2022-08-27T00:25:50.933Z,72.22
2022-08-27T00:28:20.422Z,73.30
2022-08-27T00:30:49.555Z,70.65
2022-08-27T00:33:18.870Z,72.18
2022-08-27T00:35:47.979Z,72.28
2022-08-27T00:38:18.537Z,71.97
2022-08-27T00:40:48.304Z,74.53
2022-08-27T00:43:28.161Z,78.90
2022-08-27T00:46:08.470Z,76.13
2022-08-27T00:48:38.460Z,77.70
2022-08-27T00:51:08.143Z,79.95
2022-08-27T00:53:37.597Z,83.32
2022-08-27T00:56:16.948Z,86.47
2022-08-27T00:58:52.734Z,87.97
2022-08-27T01:01:30.459Z,84.55
2022-08-27T01:04:04.158Z,84.60
2022-08-27T01:06:37.957Z,95.22
2022-08-27T01:09:15.799Z,95.00
2022-08-27T01:11:46.594Z,101.95
2022-08-27T01:14:17.330Z,96.80
2022-08-27T01:16:52.276Z,103.55
2022-08-27T01:19:30.147Z,112.10
2022-08-27T01:22:08.836Z,117.82
2022-08-27T01:24:51.313Z,110.10
2022-08-27T01:27:26.260Z,97.93
2022-08-27T01:29:56.255Z,89.30
2022-08-27T01:32:30.123Z,86.93
2022-08-27T01:34:59.995Z,74.95
2022-08-27T01:37:30.590Z,68.50
2022-08-27T01:40:00.295Z,64.35
2022-08-27T01:42:33.644Z,54.50
2022-08-27T01:45:14.867Z,46.55
2022-08-27T01:47:44.779Z,39.80
2022-08-27T01:50:19.044Z,38.22
2022-08-27T01:52:48.698Z,36.25
2022-08-27T01:55:20.481Z,29.75
2022-08-27T01:57:49.879Z,27.40
2022-08-27T02:00:46.144Z,28.13
2022-08-27T02:03:19.556Z,27.70
2022-08-27T02:05:50.036Z,29.98
2022-08-27T02:08:20.850Z,32.85
2022-08-27T02:10:51.127Z,30.23
2022-08-27T02:13:20.550Z,30.10
2022-08-27T02:15:49.965Z,30.40
2022-08-27T02:18:19.602Z,28.13
2022-08-27T02:20:49.959Z,26.73
2022-08-27T02:23:19.810Z,24.13
2022-08-27T02:25:48.972Z,21.73
2022-08-27T02:30:50.859Z,22.40
2022-08-27T02:33:19.826Z,22.75
2022-08-27T02:35:48.991Z,24.88
2022-08-27T02:38:18.238Z,24.55
2022-08-27T02:40:47.360Z,23.73
2022-08-27T02:43:16.589Z,24.90
2022-08-27T02:45:54.856Z,22.10
2022-08-27T02:48:26.213Z,20.88
2022-08-27T02:50:56.167Z,18.90
2022-08-27T02:53:25.370Z,19.88
2022-08-27T02:55:54.561Z,21.88
2022-08-27T02:58:23.733Z,20.13
2022-08-27T03:00:52.820Z,17.98
2022-08-27T03:03:22.319Z,18.17
2022-08-27T03:05:51.671Z,19.33
2022-08-27T03:08:20.886Z,25.88
2022-08-27T03:10:50.127Z,30.63
2022-08-27T03:13:19.950Z,26.98
2022-08-27T03:15:49.835Z,22.60
2022-08-27T03:18:20.968Z,22.98
2022-08-27T03:20:58.044Z,22.52
2022-08-27T03:23:30.994Z,26.40
2022-08-27T03:26:03.162Z,30.83
2022-08-27T03:28:35.682Z,32.70
2022-08-27T03:31:10.401Z,33.10
2022-08-27T03:33:42.509Z,39.47
2022-08-27T03:36:12.349Z,42.08
2022-08-27T03:38:41.738Z,42.80
2022-08-27T03:41:11.080Z,47.83
2022-08-27T03:43:40.150Z,45.05
2022-08-27T03:46:10.177Z,42.22
2022-08-27T03:48:39.491Z,38.78
2022-08-27T03:51:11.840Z,37.00
2022-08-27T03:53:48.337Z,41.40
2022-08-27T03:56:17.617Z,40.55
2022-08-27T03:58:46.888Z,41.00
2022-08-27T04:01:16.591Z,41.95
2022-08-27T04:03:45.790Z,38.47
2022-08-27T04:06:14.745Z,35.70
2022-08-27T04:08:44.029Z,34.30
2022-08-27T04:11:13.475Z,39.05
2022-08-27T04:13:42.519Z,41.30
2022-08-27T04:16:12.654Z,29.73
2022-08-27T04:18:42.271Z,25.67
2022-08-27T04:21:14.352Z,19.85
2022-08-27T04:23:44.260Z,21.13
2022-08-27T04:26:16.751Z,23.08
2022-08-27T04:28:48.865Z,27.88
2022-08-27T04:31:19.003Z,29.33
2022-08-27T04:33:51.326Z,30.88
2022-08-27T04:38:51.128Z,32.10
2022-08-27T04:41:24.709Z,30.00
2022-08-27T04:43:57.567Z,33.08
2022-08-27T04:46:30.608Z,35.90
2022-08-27T04:49:01.216Z,36.63
2022-08-27T04:51:31.902Z,19.15
2022-08-27T04:54:03.545Z,15.15
2022-08-27T04:56:33.512Z,13.70
2022-08-27T04:59:05.191Z,17.15
2022-08-27T05:01:35.048Z,14.77
2022-08-27T05:04:04.871Z,12.95
2022-08-27T05:06:34.996Z,11.15
2022-08-27T05:09:05.196Z,13.05
2022-08-27T05:11:36.198Z,13.05
2022-08-27T05:14:07.719Z,23.08
2022-08-27T05:16:38.491Z,28.90
2022-08-27T05:19:16.387Z,20.90
2022-08-27T05:21:49.138Z,12.90
2022-08-27T05:24:20.056Z,13.75
2022-08-27T05:26:50.045Z,14.25
2022-08-27T05:29:19.733Z,17.30
2022-08-27T05:31:49.037Z,16.00
2022-08-27T05:34:22.075Z,13.65
2022-08-27T05:36:54.736Z,11.98
2022-08-27T05:39:24.014Z,15.63
2022-08-27T05:41:54.140Z,15.30
2022-08-27T05:44:41.413Z,12.80
2022-08-27T05:47:11.784Z,12.73
2022-08-27T05:49:41.024Z,11.75
2022-08-27T05:52:12.800Z,12.13
2022-08-27T05:54:44.981Z,15.48
2022-08-27T05:57:14.303Z,15.18
2022-08-27T06:00:01.628Z,12.77
2022-08-27T06:02:41.148Z,10.52
2022-08-27T06:05:10.423Z,11.15
2022-08-27T06:07:39.489Z,15.07
2022-08-27T06:10:10.033Z,12.38
2022-08-27T06:12:39.566Z,14.25
2022-08-27T06:15:09.616Z,19.08
2022-08-27T06:17:38.860Z,18.55
2022-08-27T06:20:08.432Z,15.27
2022-08-27T06:22:38.418Z,16.55
2022-08-27T06:25:08.396Z,17.50
2022-08-27T06:27:37.469Z,16.60
2022-08-27T06:30:07.104Z,15.02
2022-08-27T06:32:36.388Z,15.00
2022-08-27T06:35:05.952Z,14.40
2022-08-27T06:37:35.196Z,16.08
2022-08-27T06:40:04.594Z,15.48
2022-08-27T06:42:33.585Z,16.00
2022-08-27T06:45:04.377Z,17.52
2022-08-27T06:47:34.282Z,20.23
2022-08-27T06:50:04.179Z,18.35
2022-08-27T06:52:33.399Z,21.95
2022-08-27T06:55:02.355Z,21.85
2022-08-27T06:57:31.837Z,23.90
2022-08-27T07:00:01.450Z,21.73
2022-08-27T07:02:31.555Z,21.77
2022-08-27T07:05:01.387Z,21.77
2022-08-27T07:07:35.560Z,22.83
2022-08-27T07:10:06.855Z,22.48
2022-08-27T07:12:36.106Z,21.90
2022-08-27T07:15:06.409Z,23.15
2022-08-27T07:17:35.501Z,22.77
2022-08-27T07:20:07.054Z,23.25
2022-08-27T07:22:36.158Z,24.00
2022-08-27T07:25:05.449Z,25.33
2022-08-27T07:27:35.734Z,18.92
2022-08-27T07:30:07.418Z,14.38
2022-08-27T07:32:36.924Z,15.93
2022-08-27T07:35:10.543Z,14.90
2022-08-27T07:37:41.315Z,14.43
2022-08-27T07:40:17.210Z,15.40
2022-08-27T07:43:04.943Z,13.57
2022-08-27T07:45:34.091Z,14.98
2022-08-27T07:48:03.214Z,18.23
2022-08-27T07:50:35.133Z,21.50
2022-08-27T07:53:04.306Z,24.23
2022-08-27T07:55:33.672Z,17.60
2022-08-27T07:58:03.683Z,19.08
2022-08-27T08:00:35.521Z,13.93
2022-08-27T08:03:07.206Z,14.55
2022-08-27T08:05:36.565Z,12.30
2022-08-27T08:08:06.195Z,13.85
2022-08-27T08:10:38.448Z,14.88
2022-08-27T08:15:40.928Z,15.90
2022-08-27T08:18:10.902Z,17.20
2022-08-27T08:20:57.511Z,14.45
2022-08-27T08:23:29.508Z,15.80
2022-08-27T08:25:59.599Z,16.33
2022-08-27T08:28:31.435Z,17.80
2022-08-27T08:31:01.123Z,18.77
2022-08-27T08:33:32.653Z,19.88
2022-08-27T08:36:07.528Z,17.90
2022-08-27T08:38:37.345Z,11.27
2022-08-27T08:41:20.444Z,10.98
2022-08-27T08:43:53.415Z,10.30
2022-08-27T08:46:42.471Z,10.00
2022-08-27T08:49:33.714Z,9.48
2022-08-27T08:52:31.650Z,8.98
2022-08-27T08:55:15.049Z,9.32
2022-08-27T08:57:55.141Z,9.43
2022-08-27T09:00:25.485Z,11.38
2022-08-27T09:02:56.190Z,10.82
2022-08-27T09:05:27.715Z,11.13
2022-08-27T09:08:21.254Z,11.70
2022-08-27T09:10:58.938Z,10.68
2022-08-27T09:13:56.771Z,12.80
2022-08-27T09:16:26.150Z,13.38
2022-08-27T09:18:55.927Z,12.45
2022-08-27T09:22:07.637Z,13.75
2022-08-27T09:24:53.741Z,12.40
2022-08-27T09:27:27.420Z,13.88
2022-08-27T09:29:58.029Z,16.23
2022-08-27T09:32:35.199Z,16.40
2022-08-27T09:35:08.042Z,17.05
2022-08-27T09:37:53.128Z,19.77
2022-08-27T09:40:33.331Z,21.40
2022-08-27T09:43:18.654Z,20.50
2022-08-27T09:45:54.868Z,21.00
2022-08-27T09:48:31.575Z,20.83
2022-08-27T09:51:09.795Z,22.30
2022-08-27T09:54:07.657Z,22.27
2022-08-27T09:56:43.297Z,21.98
2022-08-27T09:59:23.325Z,21.75
2022-08-27T10:01:54.128Z,24.85
2022-08-27T10:04:50.353Z,23.08
2022-08-27T10:07:53.561Z,22.40
2022-08-27T10:10:54.789Z,21.25
2022-08-27T10:13:48.670Z,23.00
2022-08-27T10:16:56.117Z,25.70
2022-08-27T10:19:48.153Z,25.15
2022-08-27T10:22:29.163Z,26.75
2022-08-27T10:25:40.581Z,26.02
2022-08-27T10:28:15.510Z,26.27
2022-08-27T10:31:03.748Z,27.60
2022-08-27T10:33:47.695Z,25.48
2022-08-27T10:36:47.112Z,22.52
2022-08-27T10:39:22.651Z,23.40
2022-08-27T10:42:01.123Z,22.67
2022-08-27T10:44:54.094Z,22.88
2022-08-27T10:47:56.044Z,23.85
2022-08-27T10:51:03.890Z,25.40
2022-08-27T10:53:50.934Z,18.23
2022-08-27T10:56:41.850Z,15.55
2022-08-27T10:59:33.366Z,16.15
2022-08-27T11:02:12.081Z,20.02
2022-08-27T11:04:50.933Z,24.10
2022-08-27T11:07:27.262Z,16.70
2022-08-27T11:10:05.692Z,16.45
2022-08-27T11:12:43.758Z,15.65
2022-08-27T11:15:34.219Z,14.93
2022-08-27T11:18:28.410Z,16.65
2022-08-27T11:21:21.253Z,12.77
2022-08-27T11:23:57.374Z,10.65
2022-08-27T11:26:26.856Z,12.45
2022-08-27T11:29:24.772Z,12.27
2022-08-27T11:32:25.068Z,12.18
2022-08-27T11:35:02.205Z,16.33
2022-08-27T11:37:43.620Z,13.82
2022-08-27T11:40:29.800Z,15.85
2022-08-27T11:43:15.064Z,21.30
2022-08-27T11:45:59.323Z,18.30
2022-08-27T11:48:32.060Z,19.33
2022-08-27T11:51:08.052Z,21.13
2022-08-27T11:53:52.549Z,20.75
2022-08-27T11:56:31.268Z,19.08
2022-08-27T11:59:29.742Z,19.60
2022-08-27T12:02:13.718Z,18.52
2022-08-27T12:04:44.048Z,19.77
2022-08-27T12:07:18.593Z,19.63
2022-08-27T12:09:59.191Z,16.40
2022-08-27T12:12:46.200Z,13.93
2022-08-27T12:15:39.641Z,12.35
2022-08-27T12:18:11.684Z,10.88
2022-08-27T12:20:54.413Z,13.40
2022-08-27T12:23:48.054Z,14.98
2022-08-27T12:26:35.731Z,14.88
2022-08-27T12:29:27.787Z,14.43
2022-08-27T12:32:17.409Z,15.82
2022-08-27T12:34:57.786Z,14.63
2022-08-27T12:40:04.916Z,13.05
2022-08-27T12:42:34.317Z,15.38
2022-08-27T12:45:03.392Z,16.30
2022-08-27T12:47:42.866Z,15.35
2022-08-27T12:50:34.139Z,18.23
2022-08-27T12:53:32.227Z,18.77
2022-08-27T12:56:34.276Z,20.35
2022-08-27T12:59:55.467Z,25.27
2022-08-27T13:02:42.904Z,18.45
2022-08-27T13:05:13.397Z,16.65
2022-08-27T13:07:45.941Z,15.15
2022-08-27T13:10:34.592Z,13.00
2022-08-27T13:13:10.952Z,11.98
2022-08-27T13:15:50.409Z,12.00
2022-08-27T13:18:21.445Z,11.88
2022-08-27T13:21:01.547Z,13.80
2022-08-27T13:23:32.283Z,11.38
2022-08-27T13:26:13.123Z,15.20
2022-08-27T13:28:44.118Z,11.98
2022-08-27T13:31:14.025Z,13.83
2022-08-27T13:33:43.950Z,9.13
2022-08-27T13:36:13.564Z,9.57
2022-08-27T13:38:50.089Z,9.95
2022-08-27T13:41:24.235Z,9.35
2022-08-27T13:43:58.549Z,10.55
2022-08-27T13:46:32.583Z,9.52
2022-08-27T13:49:02.366Z,9.27
2022-08-27T13:51:35.843Z,8.63
2022-08-27T13:54:14.692Z,9.20
2022-08-27T13:56:50.373Z,9.75
2022-08-27T13:59:22.451Z,9.10
2022-08-27T14:02:13.417Z,9.45
2022-08-27T14:04:50.407Z,9.05
2022-08-27T14:07:24.875Z,7.60
2022-08-27T14:10:04.242Z,8.32
2022-08-27T14:12:39.973Z,8.95
2022-08-27T14:15:23.359Z,9.25
2022-08-27T14:17:53.309Z,7.97
2022-08-27T14:20:22.770Z,7.82
2022-08-27T14:22:52.221Z,7.30
2022-08-27T14:25:22.831Z,7.43
2022-08-27T14:27:54.758Z,9.52
2022-08-27T14:30:30.030Z,9.65
2022-08-27T14:33:03.604Z,7.85
2022-08-27T14:35:35.546Z,7.60
2022-08-27T14:38:19.720Z,10.35
2022-08-27T14:40:51.541Z,7.93
2022-08-27T14:43:21.512Z,7.85
2022-08-27T14:45:53.593Z,8.15
2022-08-27T14:48:34.661Z,7.75
2022-08-27T14:51:13.540Z,9.25
2022-08-27T14:53:42.772Z,8.95
2022-08-27T14:56:11.765Z,9.13
2022-08-27T14:58:41.111Z,8.10
2022-08-27T15:01:11.187Z,9.25
2022-08-27T15:03:45.651Z,7.93
2022-08-27T15:06:16.024Z,7.97
2022-08-27T15:08:46.200Z,9.40
2022-08-27T15:11:22.168Z,7.60
2022-08-27T15:13:53.854Z,8.40
2022-08-27T15:16:39.631Z,8.83
2022-08-27T15:19:12.030Z,7.93
2022-08-27T15:21:42.215Z,10.00
2022-08-27T15:24:25.767Z,8.25
2022-08-27T15:26:59.028Z,8.52
2022-08-27T15:29:29.103Z,7.63
2022-08-27T15:31:59.203Z,7.65
2022-08-27T15:34:28.284Z,8.43
2022-08-27T15:36:58.350Z,8.88
2022-08-27T15:39:27.461Z,8.30
2022-08-27T15:42:06.453Z,8.07
2022-08-27T15:44:37.896Z,9.00
2022-08-27T15:47:07.365Z,8.35
2022-08-27T15:49:36.324Z,12.52
2022-08-27T15:52:06.666Z,8.88
2022-08-27T15:54:35.999Z,8.50
2022-08-27T15:57:06.829Z,7.90
2022-08-27T15:59:36.517Z,8.65
2022-08-27T16:02:08.930Z,8.82
2022-08-27T16:04:38.006Z,9.38
2022-08-27T16:07:07.277Z,8.73
2022-08-27T16:09:36.581Z,8.82
2022-08-27T16:12:05.792Z,9.13
2022-08-27T16:14:35.346Z,9.68
2022-08-27T16:17:04.969Z,8.57
2022-08-27T16:19:39.432Z,10.32
2022-08-27T16:22:09.389Z,9.02
2022-08-27T16:24:38.464Z,12.07
2022-08-27T16:27:07.596Z,7.68
2022-08-27T16:29:36.753Z,9.00
2022-08-27T16:32:06.433Z,8.90
2022-08-27T16:34:37.617Z,8.57
2022-08-27T16:37:06.805Z,7.95
2022-08-27T16:39:40.092Z,11.52
2022-08-27T16:42:11.867Z,8.43
2022-08-27T16:44:41.348Z,8.38
2022-08-27T16:47:10.630Z,8.93
2022-08-27T16:50:02.534Z,8.75
2022-08-27T16:52:31.715Z,8.35
2022-08-27T16:55:01.493Z,9.10
2022-08-27T16:57:30.496Z,9.23
2022-08-27T16:59:59.599Z,8.68
2022-08-27T17:02:36.015Z,8.70
2022-08-27T17:05:30.761Z,10.75
2022-08-27T17:07:55.092Z,9.32
2022-08-27T17:10:24.375Z,7.78
2022-08-27T17:12:53.565Z,8.98
2022-08-27T17:15:23.151Z,8.10
2022-08-27T17:17:52.281Z,9.93
2022-08-27T17:20:21.256Z,8.80
2022-08-27T17:22:50.719Z,9.75
2022-08-27T17:25:20.050Z,9.30
2022-08-27T17:27:49.174Z,9.38
2022-08-27T17:30:22.085Z,10.13
2022-08-27T17:32:51.850Z,9.13
2022-08-27T17:35:21.136Z,10.25
2022-08-27T17:37:50.173Z,9.27
2022-08-27T17:40:19.337Z,10.93
2022-08-27T17:42:48.548Z,11.75
2022-08-27T17:45:18.466Z,11.57
2022-08-27T17:47:47.759Z,10.70
2022-08-27T17:50:17.311Z,9.75
2022-08-27T17:52:46.684Z,11.77
2022-08-27T17:55:16.313Z,10.55
2022-08-27T17:57:45.729Z,10.48
2022-08-27T18:00:16.116Z,11.45
2022-08-27T18:02:48.396Z,9.75
2022-08-27T18:05:20.094Z,10.30
2022-08-27T18:07:49.520Z,11.02
2022-08-27T18:10:24.112Z,13.27
2022-08-27T18:12:56.340Z,11.88
2022-08-27T18:15:35.077Z,10.93
2022-08-27T18:18:05.261Z,10.90
2022-08-27T18:20:36.922Z,11.40
2022-08-27T18:23:10.255Z,11.50
2022-08-27T18:25:40.976Z,12.55
2022-08-27T18:28:12.935Z,11.20
2022-08-27T18:30:45.008Z,13.32
2022-08-27T18:33:15.203Z,11.13
2022-08-27T18:35:45.304Z,11.25
2022-08-27T18:38:14.501Z,12.15
2022-08-27T18:40:47.546Z,13.35
2022-08-27T18:43:19.461Z,11.88
2022-08-27T18:45:49.332Z,12.80
2022-08-27T18:48:23.171Z,13.38
2022-08-27T18:50:59.825Z,11.57
2022-08-27T18:53:32.040Z,11.77
2022-08-27T18:58:31.492Z,11.75
2022-08-27T19:01:04.507Z,13.15
2022-08-27T19:03:43.266Z,13.55
2022-08-27T19:06:13.425Z,12.07
2022-08-27T19:08:43.345Z,11.85
2022-08-27T19:11:12.533Z,12.15
2022-08-27T19:13:42.918Z,11.55
2022-08-27T19:16:22.779Z,12.20
2022-08-27T19:18:52.987Z,11.60
2022-08-27T19:21:22.140Z,12.48
2022-08-27T19:23:53.687Z,13.95
2022-08-27T19:26:26.874Z,12.55
2022-08-27T19:28:55.970Z,12.15
2022-08-27T19:31:25.747Z,13.38
2022-08-27T19:33:55.441Z,11.70
2022-08-27T19:36:25.991Z,13.00
2022-08-27T19:38:57.904Z,12.57
2022-08-27T19:41:28.049Z,13.88
2022-08-27T19:43:57.809Z,14.07
2022-08-27T19:46:27.832Z,12.45
2022-08-27T19:48:58.797Z,13.48
2022-08-27T19:51:27.895Z,12.60
2022-08-27T19:53:56.757Z,11.85
2022-08-27T19:56:26.306Z,11.98
2022-08-27T19:58:58.122Z,11.75
2022-08-27T20:01:30.790Z,12.48
2022-08-27T20:03:59.882Z,12.02
2022-08-27T20:06:30.437Z,11.80
2022-08-27T20:09:06.566Z,12.25
2022-08-27T20:11:35.937Z,13.20
2022-08-27T20:14:05.023Z,11.77
2022-08-27T20:16:40.300Z,11.63
2022-08-27T20:19:10.269Z,13.60
2022-08-27T20:21:40.351Z,12.43
2022-08-27T20:24:10.091Z,13.50
2022-08-27T20:26:40.013Z,13.25
2022-08-27T20:29:10.125Z,10.50
2022-08-27T20:31:40.625Z,11.23
2022-08-27T20:34:10.009Z,12.32
2022-08-27T20:36:39.116Z,11.25
2022-08-27T20:39:08.727Z,12.57
2022-08-27T20:41:37.866Z,10.93
2022-08-27T20:44:09.592Z,12.15
2022-08-27T20:46:38.694Z,11.68
2022-08-27T20:49:08.919Z,12.45
2022-08-27T20:52:02.421Z,11.05
2022-08-27T20:54:27.714Z,11.65
2022-08-27T20:56:56.855Z,10.98
2022-08-27T20:59:44.395Z,11.73
2022-08-27T21:02:15.897Z,11.55
2022-08-27T21:04:48.005Z,11.20
2022-08-27T21:07:18.849Z,12.15
2022-08-27T21:12:28.356Z,12.48
2022-08-27T21:14:58.225Z,12.02
2022-08-27T21:17:28.927Z,12.18
2022-08-27T21:19:58.744Z,10.65
2022-08-27T21:22:28.563Z,11.35
2022-08-27T21:24:58.128Z,13.60
2022-08-27T21:27:27.352Z,13.68
2022-08-27T21:29:56.339Z,13.35
2022-08-27T21:32:25.480Z,13.88
2022-08-27T21:34:54.641Z,12.63
2022-08-27T21:37:23.604Z,12.98
2022-08-27T21:39:53.306Z,12.90
2022-08-27T21:42:23.197Z,13.75
2022-08-27T21:44:52.240Z,12.93
2022-08-27T21:47:22.035Z,13.63
2022-08-27T21:49:51.313Z,12.85
2022-08-27T21:52:20.891Z,12.85
2022-08-27T21:54:49.972Z,13.60
2022-08-27T21:57:18.942Z,13.88
2022-08-27T21:59:50.086Z,12.88
2022-08-27T22:02:39.351Z,12.10
2022-08-27T22:05:10.481Z,12.43
2022-08-27T22:07:39.544Z,12.40
2022-08-27T22:10:09.036Z,12.77
2022-08-27T22:12:38.278Z,12.05
2022-08-27T22:15:09.956Z,12.32
2022-08-27T22:17:39.105Z,12.20
2022-08-27T22:20:10.450Z,10.98
2022-08-27T22:22:40.667Z,13.27
2022-08-27T22:25:10.023Z,12.00
2022-08-27T22:27:39.517Z,12.05
2022-08-27T22:30:11.367Z,13.27
2022-08-27T22:35:11.307Z,13.35
2022-08-27T22:37:40.804Z,14.18
2022-08-27T22:40:19.977Z,11.63
2022-08-27T22:42:51.047Z,12.63
2022-08-27T22:45:21.779Z,12.15
2022-08-27T22:47:50.832Z,11.77
2022-08-27T22:50:20.043Z,12.90
2022-08-27T22:52:50.239Z,12.80
2022-08-27T22:55:22.966Z,13.23
2022-08-27T22:57:54.995Z,13.35
2022-08-27T23:00:28.980Z,14.57
2022-08-27T23:02:58.416Z,13.95
2022-08-27T23:05:28.485Z,13.10
2022-08-27T23:08:10.314Z,11.90
2022-08-27T23:10:40.049Z,14.38
2022-08-27T23:13:10.882Z,12.88
2022-08-27T23:15:40.215Z,12.60
2022-08-27T23:18:09.305Z,12.77
2022-08-27T23:20:39.200Z,12.68
2022-08-27T23:23:09.029Z,13.10
2022-08-27T23:25:56.492Z,13.73
2022-08-27T23:28:25.813Z,14.15
2022-08-27T23:30:55.988Z,13.55
2022-08-27T23:33:25.173Z,13.32
2022-08-27T23:35:54.207Z,13.60
2022-08-27T23:38:23.732Z,13.45
2022-08-27T23:40:53.360Z,14.13
2022-08-27T23:43:22.670Z,13.65
2022-08-27T23:45:53.045Z,13.57
2022-08-27T23:48:22.275Z,13.85
2022-08-27T23:50:51.532Z,14.05
2022-08-27T23:53:20.463Z,13.32
2022-08-27T23:55:49.542Z,13.38
2022-08-27T23:58:18.807Z,13.98
